AYPYWABB

Guest
Details From AYPY - Port Moresby Jacksons Intl
To WABB - Biak Frans Kaisiepo
Flight Number -
Tags decoded
Created
Modified
Stats Distance 931 nm / 1,725 km
Max Altitude 0 ft / 0 m
Waypoints 5
Social Downloads 0
Likes 0
Share VATSIM

Download

Looking for another format? Having issues loading an existing format? Contact us
Advertisement - Login to hide

Notes

Requested: AYPY NOGOT A215 MKE W62 OBASA WABB Unmatched points: NOGOT A215

Route

AYPY MKE W62 OBASA WABB

ID Type Via Altitude Latitude Longitude Leg Dist Tot Dist Heading (true) Name
O AYPY APT - 0 ft / 0 m -9.44208˚ 147.21920˚ - 0 nm - Port Moresby Jacksons Intl
MKE VOR - 0 ft / 0 m -8.52261˚ 140.41711˚ 407 nm 407 nm 277° / 278° MERAUKE VOR-DME
ZW NDB W62 (AWY-LO) 0 ft / 0 m -4.10048˚ 138.95647˚ 279 nm 686 nm 342° / 342° WAMENA NDB
OBASA FIX W62 (AWY-LO) 0 ft / 0 m -2.37485˚ 137.25503˚ 145 nm 832 nm 315° / 315° -
O WABB APT - 0 ft / 0 m -1.19002˚ 136.10799˚ 99 nm 931 nm 316° / 316° Biak Frans Kaisiepo

Altitude Profile

Advertisement - Login to hide

Weather


0- 5 10 15 20 25 30 35+ Temperature / ° C

Clouds and Precipitation
Forecast for 2017-12-17 12:00 UTC. Updated 2 hours ago

Ground ~20,000 ft ~40,000 ft Winds

AYPY

Details ICAO AYPY (POM)
Name Port Moresby Jacksons Intl
Region Papua New Guinea
Timezone Pacific/Port_Moresby (UTC+10.0)
Stats Elevation 146 ft / 45 m (AMSL)
Location -9.442079° 147.219200°
Runways 2
Magnetic Variation 5.901° E

METAR

AYPY 170800Z 17004KT 9999 FEW020 BKN300 29/22 Q1007

Decode

TAF

Not found

Departure Runways

ID Width Length Bearing (true) Bearing (mag) Surface Threshold Offset Overrun Length
14L 148 ft / 45 m 9,077 ft / 2,767 m 148.61° 142.71° Asphalt 0 ft / 0 m 200 ft / 61 m
14R 148 ft / 45 m 6,802 ft / 2,073 m 148.65° 142.75° Asphalt 0 ft / 0 m 0 ft / 0 m
32L 148 ft / 45 m 6,802 ft / 2,073 m 328.65° 322.75° Asphalt 0 ft / 0 m 0 ft / 0 m
32R 148 ft / 45 m 9,077 ft / 2,767 m 328.61° 322.71° Asphalt 0 ft / 0 m 200 ft / 61 m

WABB

Details ICAO WABB (BIK)
Name Biak Frans Kaisiepo
Region Indonesia
Timezone Asia/Jayapura (UTC+9.0)
Stats Elevation 46 ft / 14 m (AMSL)
Location -1.190022° 136.107988°
Runways 1
Magnetic Variation 2.086° E

METAR

WABB 170800Z 15001KT 9999 FEW018 29/25 Q1006 NOSIG

Decode

TAF

Not found

Destination Runways

ID Width Length Bearing (true) Bearing (mag) Surface Threshold Offset Overrun Length
11 151 ft / 46 m 11,697 ft / 3,565 m 109.30° 107.21° Concrete 0 ft / 0 m 194 ft / 59 m
29 151 ft / 46 m 11,697 ft / 3,565 m 289.30° 287.21° Concrete 0 ft / 0 m 200 ft / 61 m

Approach Navaids

Runway Type Ident Frequency Range Bearing (true) Bearing (mag) Slope Elevation
11 Localiser IBIK 110.50 MHz 18 nm / 33 km 109.38° 107.29° - 25 ft / 8 m (AMSL)
11 Glidescope IBIK 110.50 MHz 10 nm / 19 km 109.30° 107.21° 3.00° 36 ft / 11 m (AMSL)

Popular Alternatives